Historique des mesures à Cassis (13260), France
Quotidien Résumé Mai 3, 2017 Unités:  Métrique    US   Métrique/US
« Précédent (Jour)
Suivant (Jour) »
Quotidien Hebdomadaire Mensuel Annuel Période au choix
  Maximum: Minimum: Moyenne:
Température: TemperatureC °C 9.9 °C 13.9 °C
Point de rosée: DewpointC °C 6.6 °C 8 °C
Humidité: Humidity % 46 % 65 %
Vitesse du vent: 0 km/h 0 km/h 4 km/h
Rafales: 0 km/h - -
Vent:- - SSW
Pression: PressurehPa hPa 1014.1 hPa -
Précipitations: 0.0 mm    
Historical Graphs
 
 
Mesures pour : Mai 3, 2017
Heure Temperature Point de rosée Pression Vent Vitesse du vent Rafales Humidité Pluie (par heure) Conditions
TemperatureC °C DewpointC °C PressurehPa hPa Calm     Humidity % HourlyPrecipMM mm SoftwareType W/m2
00:10 11.5 °C 8.6 °C 1015.5 hPa WNW 6.9 km/h 6.9 km/h 82 % 0.0 mm open2300-1.11 W/m2
01:10 10.9 °C 7.9 °C 1015.5 hPa Calm   3.4 km/h 82 % 0.0 mm open2300-1.11 W/m2
02:10 10.6 °C 7.7 °C 1015.5 hPa Calm   3.4 km/h 82 % 0.0 mm open2300-1.11 W/m2
03:10 10.4 °C 7.6 °C 1014.8 hPa NNE 3.4 km/h 4.7 km/h 83 % 0.0 mm open2300-1.11 W/m2
04:10 10.4 °C 7.8 °C 1014.8 hPa Calm   3.4 km/h 84 % 0.0 mm open2300-1.11 W/m2
05:10 10.3 °C 7.7 °C 1014.8 hPa North 2.3 km/h 2.3 km/h 84 % 0.0 mm open2300-1.11 W/m2
06:10 10.1 °C 7.1 °C 1014.4 hPa NNW 5.1 km/h 5.1 km/h 82 % 0.0 mm open2300-1.11 W/m2
07:11 9.9 °C 6.9 °C 1015.1 hPa West 6.4 km/h 6.4 km/h 82 % 0.0 mm open2300-1.11 W/m2
08:11 13.2 °C 8.8 °C 1014.8 hPa NW 6.4 km/h 8 km/h 75 % 0.0 mm open2300-1.11 W/m2
09:11 12.8 °C 8.1 °C 1015.1 hPa North 2.9 km/h 5.1 km/h 73 % 0.0 mm open2300-1.11 W/m2
10:10 13.8 °C 9.0 °C 1015.1 hPa WNW 2.3 km/h 2.3 km/h 73 % 0.0 mm open2300-1.11 W/m2
11:10 17.6 °C 11.6 °C 1015.5 hPa NW 4.2 km/h 4.7 km/h 68 % 0.0 mm open2300-1.11 W/m2
12:10 18.2 °C 8.7 °C 1015.5 hPa NW 11.6 km/h 27.2 km/h 54 % 0.0 mm open2300-1.11 W/m2
13:10 18.6 °C 8.0 °C 1015.1 hPa WNW 4.2 km/h 15.6 km/h 50 % 0.0 mm open2300-1.11 W/m2
14:10 18.5 °C 6.6 °C 1014.8 hPa WSW 13.2 km/h 27.2 km/h 46 % 0.0 mm open2300-1.11 W/m2
15:10 19.8 °C 9.9 °C 1014.8 hPa SSW 8 km/h 14 km/h 53 % 0.0 mm open2300-1.11 W/m2
16:10 19.6 °C 9.5 °C 1014.1 hPa Calm   5.6 km/h 52 % 0.0 mm open2300-1.11 W/m2
17:10 19.3 °C 9.5 °C 1014.1 hPa SSW 6.9 km/h 11.6 km/h 53 % 0.0 mm open2300-1.11 W/m2
18:10 18.6 °C 8.8 °C 1014.1 hPa West 4.2 km/h 6.9 km/h 53 % 0.0 mm open2300-1.11 W/m2
19:10 17.9 °C 9.2 °C 1014.1 hPa Calm   10.9 km/h 57 % 0.0 mm open2300-1.11 W/m2
20:10 16.4 °C 8.7 °C 1014.1 hPa SSW 8 km/h 10.3 km/h 60 % 0.0 mm open2300-1.11 W/m2
21:10 15.0 °C 8.2 °C 1014.4 hPa NE 3.4 km/h 3.4 km/h 64 % 0.0 mm open2300-1.11 W/m2
22:10 13.1 °C 7.3 °C 1014.4 hPa Calm     68 % 0.0 mm open2300-1.11 W/m2
23:11 12.2 °C 6.9 °C 1014.4 hPa Calm     70 % 0.0 mm open2300-1.11 W/m2
Observations météo à CASSIS
WU-History script by Weather Underground - 1 mb